Time;durP1;ratioP1;P1;durP2;ratioP2;P2;SDS_P1;SDS_P2;PMS_P1;PMS_P2;Temp;Humidity;BMP_temperature;BMP_pressure;BME280_temperature;BME280_humidity;BME280_pressure;Samples;Min_cycle;Max_cycle;Signal;HPM_P1;HPM_P2
2021/07/01 00:00:53;;;;;;;;;6.00;6.00;;;;;;;;5014441;28;45874;-80
2021/07/01 00:03:18;;;;;;;;;6.50;6.25;;;;;;;;5015243;28;45596;-79
2021/07/01 00:05:44;;;;;;;;;9.50;6.50;;;;;;;;5010302;28;45512;-79
2021/07/01 00:08:10;;;;;;;;;7.75;6.00;;;;;;;;5008600;28;47442;-79
2021/07/01 00:10:35;;;;;;;;;6.00;6.00;;;;;;;;5006705;28;45604;-79
2021/07/01 00:13:00;;;;;;;;;6.00;6.00;;;;;;;;5011691;28;45470;-79
2021/07/01 00:15:27;;;;;;;;;8.50;7.00;;;;;;;;5013303;28;46906;-79
2021/07/01 00:17:53;;;;;;;;;9.00;7.50;;;;;;;;5007738;28;47308;-79
2021/07/01 00:20:20;;;;;;;;;6.75;6.75;;;;;;;;5014451;28;48228;-79
2021/07/01 00:22:47;;;;;;;;;6.00;4.50;;;;;;;;5009046;28;45626;-81
2021/07/01 00:25:14;;;;;;;;;8.75;6.75;;;;;;;;5019446;28;45742;-79
2021/07/01 00:27:40;;;;;;;;;4.75;4.75;;;;;;;;5009509;28;45663;-79
2021/07/01 00:30:06;;;;;;;;;8.75;6.00;;;;;;;;5019531;28;54706;-79
2021/07/01 00:32:31;;;;;;;;;5.75;5.75;;;;;;;;5005810;28;45482;-79
2021/07/01 00:34:56;;;;;;;;;7.50;6.00;;;;;;;;5018975;28;45801;-79
2021/07/01 00:37:22;;;;;;;;;6.00;6.00;;;;;;;;5022259;28;47359;-79
2021/07/01 00:39:47;;;;;;;;;8.00;6.00;;;;;;;;5016208;28;45493;-79
2021/07/01 00:42:12;;;;;;;;;7.25;5.50;;;;;;;;5018625;28;45728;-79
2021/07/01 00:44:37;;;;;;;;;7.33;6.33;;;;;;;;5006680;28;46053;-79
2021/07/01 00:47:03;;;;;;;;;4.67;4.33;;;;;;;;5009319;28;50267;-79
2021/07/01 00:49:28;;;;;;;;;6.75;6.00;;;;;;;;5005168;28;45878;-79
2021/07/01 00:51:53;;;;;;;;;9.50;5.75;;;;;;;;5012530;28;45533;-79
2021/07/01 00:54:19;;;;;;;;;7.75;5.75;;;;;;;;5013143;28;45639;-79
2021/07/01 00:56:44;;;;;;;;;6.75;5.00;;;;;;;;5010875;28;46368;-79
2021/07/01 00:59:10;;;;;;;;;5.00;5.00;;;;;;;;5014561;28;45652;-79
2021/07/01 01:01:35;;;;;;;;;4.00;4.00;;;;;;;;5003185;28;45641;-79
2021/07/01 01:04:00;;;;;;;;;5.75;5.00;;;;;;;;5006189;28;45491;-79
2021/07/01 01:06:26;;;;;;;;;7.75;5.25;;;;;;;;5004453;28;47072;-79
2021/07/01 01:08:52;;;;;;;;;6.00;6.00;;;;;;;;5016129;28;46290;-79
2021/07/01 01:11:17;;;;;;;;;7.75;6.00;;;;;;;;5014836;28;45422;-79
2021/07/01 01:13:43;;;;;;;;;7.00;6.00;;;;;;;;5007148;28;45373;-79
2021/07/01 01:16:08;;;;;;;;;6.75;6.50;;;;;;;;5011766;28;45672;-79
2021/07/01 01:18:34;;;;;;;;;6.00;4.50;;;;;;;;5011086;28;45485;-80
2021/07/01 01:20:59;;;;;;;;;7.50;6.75;;;;;;;;5010604;28;46424;-79
2021/07/01 01:23:25;;;;;;;;;9.25;7.00;;;;;;;;5014496;28;45465;-79
2021/07/01 01:25:52;;;;;;;;;8.00;6.00;;;;;;;;5010401;28;45555;-79
2021/07/01 01:28:18;;;;;;;;;9.00;7.00;;;;;;;;5012744;28;45980;-83
2021/07/01 01:30:43;;;;;;;;;9.50;6.00;;;;;;;;5034398;28;46432;-79
2021/07/01 01:33:09;;;;;;;;;6.50;5.75;;;;;;;;5006885;28;45556;-80
2021/07/01 01:35:36;;;;;;;;;8.00;6.75;;;;;;;;5012906;28;50260;-79
2021/07/01 01:38:02;;;;;;;;;6.25;5.75;;;;;;;;5020112;28;45882;-79
2021/07/01 01:40:27;;;;;;;;;10.00;6.00;;;;;;;;5003937;28;45692;-79
2021/07/01 01:42:53;;;;;;;;;10.00;7.50;;;;;;;;5014729;28;45569;-79
2021/07/01 01:45:18;;;;;;;;;6.50;6.00;;;;;;;;5011309;28;46265;-79
2021/07/01 01:47:47;;;;;;;;;8.25;6.50;;;;;;;;5028398;28;46153;-80
2021/07/01 01:50:16;;;;;;;;;7.25;7.25;;;;;;;;5010602;28;45534;-79
2021/07/01 01:52:41;;;;;;;;;7.00;6.00;;;;;;;;5007115;28;45569;-79
2021/07/01 01:55:10;;;;;;;;;10.33;9.00;;;;;;;;5010715;28;46224;-79
2021/07/01 01:57:35;;;;;;;;;8.00;7.00;;;;;;;;5011651;28;47739;-77
2021/07/01 02:00:00;;;;;;;;;6.00;6.00;;;;;;;;5010396;28;53985;-77
2021/07/01 02:02:25;;;;;;;;;11.00;6.33;;;;;;;;5016616;28;45674;-76
2021/07/01 02:04:50;;;;;;;;;10.00;7.00;;;;;;;;5008226;28;46250;-77
2021/07/01 02:07:16;;;;;;;;;7.00;7.00;;;;;;;;5013224;28;45426;-76
2021/07/01 02:09:41;;;;;;;;;9.00;8.00;;;;;;;;5033639;28;45505;-76
2021/07/01 02:12:06;;;;;;;;;7.67;7.67;;;;;;;;5014148;28;45477;-76
2021/07/01 02:14:31;;;;;;;;;7.75;7.00;;;;;;;;5019901;28;45555;-78
2021/07/01 02:16:57;;;;;;;;;8.00;6.67;;;;;;;;5010024;28;45540;-76
2021/07/01 02:19:22;;;;;;;;;9.00;8.00;;;;;;;;5014159;28;45669;-76
2021/07/01 02:21:47;;;;;;;;;8.00;6.75;;;;;;;;5011337;28;45634;-77
2021/07/01 02:24:12;;;;;;;;;7.00;4.50;;;;;;;;5031287;28;47952;-77
2021/07/01 02:26:38;;;;;;;;;11.67;7.33;;;;;;;;5012039;28;45553;-77
2021/07/01 02:29:03;;;;;;;;;8.75;8.00;;;;;;;;5012118;28;45668;-76
2021/07/01 02:31:28;;;;;;;;;8.00;8.00;;;;;;;;5010752;28;45699;-77
2021/07/01 02:33:53;;;;;;;;;8.50;7.00;;;;;;;;5018841;28;47834;-76
2021/07/01 02:36:19;;;;;;;;;8.67;7.00;;;;;;;;5017120;28;45549;-76
2021/07/01 02:38:44;;;;;;;;;8.67;7.00;;;;;;;;5011214;28;45611;-77
2021/07/01 02:41:09;;;;;;;;;7.67;5.00;;;;;;;;5008606;28;45458;-77
2021/07/01 02:43:34;;;;;;;;;6.00;5.75;;;;;;;;5006951;28;45527;-76
2021/07/01 02:46:00;;;;;;;;;7.25;6.00;;;;;;;;5035562;28;45576;-76
2021/07/01 02:48:25;;;;;;;;;10.75;7.50;;;;;;;;5004725;28;45593;-77
2021/07/01 02:50:50;;;;;;;;;9.00;6.50;;;;;;;;5008671;28;45556;-77
2021/07/01 02:53:16;;;;;;;;;9.25;5.50;;;;;;;;5010036;28;45607;-77
2021/07/01 02:55:41;;;;;;;;;11.25;6.25;;;;;;;;5005739;28;55929;-76
2021/07/01 02:58:06;;;;;;;;;9.33;8.00;;;;;;;;5015492;28;45569;-77
2021/07/01 03:00:31;;;;;;;;;10.00;8.25;;;;;;;;5008317;28;45823;-77
2021/07/01 03:02:57;;;;;;;;;8.50;7.00;;;;;;;;5024153;28;48193;-78
2021/07/01 03:05:22;;;;;;;;;7.25;6.00;;;;;;;;5011834;28;45662;-77
2021/07/01 03:07:47;;;;;;;;;9.50;9.00;;;;;;;;5007285;28;48680;-77
2021/07/01 03:10:13;;;;;;;;;11.00;7.00;;;;;;;;5008738;28;45600;-77
2021/07/01 03:12:38;;;;;;;;;6.67;5.67;;;;;;;;5010087;28;46118;-77
2021/07/01 03:15:04;;;;;;;;;11.00;8.00;;;;;;;;5008170;28;45636;-77
2021/07/01 03:17:29;;;;;;;;;8.50;7.75;;;;;;;;5064345;22;46088;-77
2021/07/01 03:19:54;;;;;;;;;11.00;7.75;;;;;;;;5010298;28;45717;-77
2021/07/01 03:22:19;;;;;;;;;8.75;8.75;;;;;;;;5007144;28;46272;-77
2021/07/01 03:24:45;;;;;;;;;11.33;11.00;;;;;;;;5008903;28;45436;-76
2021/07/01 03:27:10;;;;;;;;;11.67;10.33;;;;;;;;5005435;28;45626;-76
2021/07/01 03:29:35;;;;;;;;;10.75;8.50;;;;;;;;5016557;28;45567;-76
2021/07/01 03:32:00;;;;;;;;;11.67;9.33;;;;;;;;5007038;28;45516;-77
2021/07/01 03:34:26;;;;;;;;;10.00;8.00;;;;;;;;5005212;28;46192;-79
2021/07/01 03:36:51;;;;;;;;;13.25;10.75;;;;;;;;5015742;28;45517;-77
2021/07/01 03:39:16;;;;;;;;;12.25;10.25;;;;;;;;5014202;28;45536;-78
2021/07/01 03:41:42;;;;;;;;;9.50;7.50;;;;;;;;5011804;28;46270;-78
2021/07/01 03:44:09;;;;;;;;;13.25;12.00;;;;;;;;5015628;28;45808;-77
2021/07/01 03:46:34;;;;;;;;;13.75;9.00;;;;;;;;5011575;28;45651;-77
2021/07/01 03:48:59;;;;;;;;;13.00;7.75;;;;;;;;5016523;28;45981;-77
2021/07/01 03:51:25;;;;;;;;;11.75;9.00;;;;;;;;5010051;28;46337;-77
2021/07/01 03:53:50;;;;;;;;;15.00;10.25;;;;;;;;5011411;28;48245;-77
2021/07/01 03:56:15;;;;;;;;;11.33;9.33;;;;;;;;5020850;28;45443;-77
2021/07/01 03:58:41;;;;;;;;;12.00;9.67;;;;;;;;5015152;28;45566;-77
2021/07/01 04:01:06;;;;;;;;;15.75;12.00;;;;;;;;5031448;28;48094;-77
2021/07/01 04:03:31;;;;;;;;;14.25;10.00;;;;;;;;5012899;28;45450;-77
2021/07/01 04:05:56;;;;;;;;;11.75;11.75;;;;;;;;5012310;28;45406;-77
2021/07/01 04:08:22;;;;;;;;;14.75;11.75;;;;;;;;5015804;28;45555;-78
2021/07/01 04:10:47;;;;;;;;;10.00;10.00;;;;;;;;5005646;28;60470;-77
2021/07/01 04:13:12;;;;;;;;;14.50;12.50;;;;;;;;5004159;28;47800;-78
2021/07/01 04:15:38;;;;;;;;;13.50;10.00;;;;;;;;5013694;28;45703;-77
2021/07/01 04:18:07;;;;;;;;;13.25;11.50;;;;;;;;5012180;28;45670;-77
2021/07/01 04:20:33;;;;;;;;;11.25;8.25;;;;;;;;5006357;28;49541;-78
2021/07/01 04:22:58;;;;;;;;;12.25;9.25;;;;;;;;5006851;28;46319;-77
2021/07/01 04:25:23;;;;;;;;;13.67;11.33;;;;;;;;5016398;28;46614;-77
2021/07/01 04:27:48;;;;;;;;;13.00;11.00;;;;;;;;5013610;28;45531;-78
2021/07/01 04:30:14;;;;;;;;;14.33;11.00;;;;;;;;5003107;28;46232;-77
2021/07/01 04:32:39;;;;;;;;;15.75;12.50;;;;;;;;5013592;28;46625;-78
2021/07/01 04:35:05;;;;;;;;;16.67;13.00;;;;;;;;5015351;28;45454;-77
2021/07/01 04:37:30;;;;;;;;;16.00;10.50;;;;;;;;5012182;28;45584;-77
2021/07/01 04:39:55;;;;;;;;;11.67;10.33;;;;;;;;5020783;28;45561;-78
2021/07/01 04:42:20;;;;;;;;;12.25;11.25;;;;;;;;5007174;28;45733;-77
2021/07/01 04:44:46;;;;;;;;;15.00;12.00;;;;;;;;5009987;28;45648;-77
2021/07/01 04:47:11;;;;;;;;;13.50;13.50;;;;;;;;5023248;28;48299;-78
2021/07/01 04:49:36;;;;;;;;;14.25;12.25;;;;;;;;5004714;28;46462;-77
2021/07/01 04:52:02;;;;;;;;;14.50;14.00;;;;;;;;5020149;28;45550;-77
2021/07/01 04:54:27;;;;;;;;;17.00;13.25;;;;;;;;5007262;28;45780;-77
2021/07/01 04:56:52;;;;;;;;;13.33;12.00;;;;;;;;5021492;28;45574;-78
2021/07/01 04:59:18;;;;;;;;;15.00;12.00;;;;;;;;5014237;28;46930;-78
2021/07/01 05:01:44;;;;;;;;;14.25;13.25;;;;;;;;5018458;28;45572;-78
2021/07/01 05:04:11;;;;;;;;;13.75;13.00;;;;;;;;5008252;28;45493;-78
2021/07/01 05:06:37;;;;;;;;;19.50;12.75;;;;;;;;5005179;28;45999;-78
2021/07/01 05:09:06;;;;;;;;;17.25;14.50;;;;;;;;5010990;28;45660;-78
2021/07/01 05:11:31;;;;;;;;;12.50;12.50;;;;;;;;5015210;28;45605;-77
2021/07/01 05:13:57;;;;;;;;;12.75;11.00;;;;;;;;5012131;28;45536;-78
2021/07/01 05:16:22;;;;;;;;;17.00;13.25;;;;;;;;5003936;28;45566;-78
2021/07/01 05:18:47;;;;;;;;;12.75;11.00;;;;;;;;5022815;28;47207;-78
2021/07/01 05:21:13;;;;;;;;;16.67;13.67;;;;;;;;5008586;28;45514;-78
2021/07/01 05:23:38;;;;;;;;;16.25;13.25;;;;;;;;5028308;28;45515;-78
2021/07/01 05:26:03;;;;;;;;;14.00;11.50;;;;;;;;5008817;28;45574;-78
2021/07/01 05:28:29;;;;;;;;;19.50;14.25;;;;;;;;5006245;28;48833;-78
2021/07/01 05:30:54;;;;;;;;;16.25;12.50;;;;;;;;5028999;28;45531;-78
2021/07/01 05:33:21;;;;;;;;;15.25;13.75;;;;;;;;5009544;28;45608;-78
2021/07/01 05:35:47;;;;;;;;;21.50;15.50;;;;;;;;5006557;28;46540;-78
2021/07/01 05:38:12;;;;;;;;;16.75;12.75;;;;;;;;5018459;28;45572;-77
2021/07/01 05:40:37;;;;;;;;;16.25;13.00;;;;;;;;5010989;28;45521;-78
2021/07/01 05:43:03;;;;;;;;;15.25;12.75;;;;;;;;5019653;28;45759;-78
2021/07/01 05:45:28;;;;;;;;;12.25;10.25;;;;;;;;5011457;28;45479;-77
2021/07/01 05:47:53;;;;;;;;;19.67;14.00;;;;;;;;5007240;28;46152;-78
2021/07/01 05:50:19;;;;;;;;;13.25;10.25;;;;;;;;5023005;28;45834;-78
2021/07/01 05:52:49;;;;;;;;;17.00;16.00;;;;;;;;5012414;28;45576;-78
2021/07/01 05:55:14;;;;;;;;;18.75;14.25;;;;;;;;5013095;28;45651;-78
2021/07/01 05:57:39;;;;;;;;;14.75;12.00;;;;;;;;5021381;28;47940;-80
2021/07/01 06:00:06;;;;;;;;;16.25;13.50;;;;;;;;5006957;28;46122;-80
2021/07/01 06:02:31;;;;;;;;;15.75;14.00;;;;;;;;5011488;28;45578;-79
2021/07/01 06:04:57;;;;;;;;;16.00;13.00;;;;;;;;5011159;28;45575;-80
2021/07/01 06:07:23;;;;;;;;;15.00;13.75;;;;;;;;5009643;28;46109;-84
2021/07/01 06:09:51;;;;;;;;;18.00;14.00;;;;;;;;5010246;28;46094;-81
2021/07/01 06:12:17;;;;;;;;;17.00;14.00;;;;;;;;5009517;28;46448;-79
2021/07/01 06:14:43;;;;;;;;;18.25;14.75;;;;;;;;5005863;28;45956;-80
2021/07/01 06:17:09;;;;;;;;;20.00;14.00;;;;;;;;5028396;28;46244;-80
2021/07/01 06:19:34;;;;;;;;;18.00;13.25;;;;;;;;5008097;28;45620;-80
2021/07/01 06:22:00;;;;;;;;;18.00;15.75;;;;;;;;5010879;28;45636;-80
2021/07/01 06:24:25;;;;;;;;;19.25;15.50;;;;;;;;5016268;28;46337;-80
2021/07/01 06:26:51;;;;;;;;;18.00;16.00;;;;;;;;5010775;28;45856;-80
2021/07/01 06:29:17;;;;;;;;;19.75;17.75;;;;;;;;5013744;28;45584;-80
2021/07/01 06:31:42;;;;;;;;;24.50;15.00;;;;;;;;5018272;28;46149;-79
2021/07/01 06:34:08;;;;;;;;;15.00;13.25;;;;;;;;5022918;28;45649;-80
2021/07/01 06:36:34;;;;;;;;;18.50;15.75;;;;;;;;5004909;28;45974;-80
2021/07/01 06:39:06;;;;;;;;;15.75;13.50;;;;;;;;5017535;28;45666;-81
2021/07/01 06:41:32;;;;;;;;;20.00;15.50;;;;;;;;5023684;28;45789;-80
2021/07/01 06:43:58;;;;;;;;;18.25;14.75;;;;;;;;5008638;28;46289;-80
2021/07/01 06:46:30;;;;;;;;;19.75;16.00;;;;;;;;5009540;28;47855;-80
2021/07/01 06:48:55;;;;;;;;;19.50;14.50;;;;;;;;5017619;28;46094;-80
2021/07/01 06:51:23;;;;;;;;;17.75;13.50;;;;;;;;5024679;28;45572;-80
2021/07/01 06:53:50;;;;;;;;;19.50;13.25;;;;;;;;5015897;28;45697;-80
2021/07/01 06:56:15;;;;;;;;;14.75;12.50;;;;;;;;5022703;28;46239;-79
2021/07/01 06:58:44;;;;;;;;;15.25;11.75;;;;;;;;5007981;28;45507;-78
2021/07/01 07:01:09;;;;;;;;;15.50;11.25;;;;;;;;5019123;28;45513;-79
2021/07/01 07:03:35;;;;;;;;;14.00;12.00;;;;;;;;5022459;28;44988;-78
2021/07/01 07:06:03;;;;;;;;;12.50;10.00;;;;;;;;5018682;28;46165;-78
2021/07/01 07:08:29;;;;;;;;;15.75;12.00;;;;;;;;5013839;28;45793;-78
2021/07/01 07:10:55;;;;;;;;;13.75;13.00;;;;;;;;5016798;28;47272;-78
2021/07/01 07:13:24;;;;;;;;;15.00;12.50;;;;;;;;5005580;28;46417;-78
2021/07/01 07:15:50;;;;;;;;;13.00;11.00;;;;;;;;5005784;28;48166;-78
2021/07/01 07:18:18;;;;;;;;;15.00;12.25;;;;;;;;4969484;28;1222928;-78
2021/07/01 07:20:45;;;;;;;;;17.00;14.50;;;;;;;;5020959;28;45560;-78
2021/07/01 07:23:15;;;;;;;;;20.25;12.75;;;;;;;;5010071;28;45722;-78
2021/07/01 07:25:41;;;;;;;;;13.50;10.50;;;;;;;;5018315;28;47154;-77
2021/07/01 07:28:08;;;;;;;;;14.00;11.00;;;;;;;;5010632;28;45774;-78
2021/07/01 07:30:33;;;;;;;;;12.00;9.00;;;;;;;;5025823;28;45562;-78
2021/07/01 07:33:06;;;;;;;;;9.25;9.25;;;;;;;;5017082;28;45570;-78
2021/07/01 07:35:31;;;;;;;;;11.50;9.00;;;;;;;;5012882;28;46204;-78
2021/07/01 07:37:57;;;;;;;;;10.00;10.00;;;;;;;;5025950;28;45498;-78
2021/07/01 07:40:22;;;;;;;;;9.50;8.50;;;;;;;;5014193;28;45433;-78
2021/07/01 07:42:47;;;;;;;;;12.50;8.50;;;;;;;;5011034;28;45673;-78
2021/07/01 07:45:13;;;;;;;;;8.75;8.00;;;;;;;;5020088;28;46074;-78
2021/07/01 07:47:38;;;;;;;;;14.00;11.50;;;;;;;;5025530;28;46129;-78
2021/07/01 07:50:05;;;;;;;;;11.00;9.00;;;;;;;;5019264;28;45504;-78
2021/07/01 07:52:31;;;;;;;;;14.50;12.25;;;;;;;;5025746;28;45631;-78
2021/07/01 07:55:00;;;;;;;;;10.75;9.00;;;;;;;;5029280;28;48279;-78
2021/07/01 07:57:29;;;;;;;;;12.75;10.25;;;;;;;;5017210;28;45668;-80
2021/07/01 07:59:56;;;;;;;;;10.00;10.00;;;;;;;;5018058;28;45507;-80
2021/07/01 08:02:41;;;;;;;;;11.50;11.50;;;;;;;;5015806;28;45442;-80
2021/07/01 08:05:06;;;;;;;;;12.75;8.75;;;;;;;;5016615;28;46265;-80
2021/07/01 08:07:32;;;;;;;;;11.00;9.75;;;;;;;;5015538;28;45508;-80
2021/07/01 08:09:59;;;;;;;;;13.50;10.00;;;;;;;;5018975;28;45493;-80
2021/07/01 08:12:26;;;;;;;;;13.75;11.75;;;;;;;;5016960;28;45425;-80
2021/07/01 08:14:51;;;;;;;;;15.00;12.00;;;;;;;;5025257;28;45481;-80
2021/07/01 08:17:17;;;;;;;;;15.50;14.75;;;;;;;;5017822;28;45484;-80
2021/07/01 08:19:43;;;;;;;;;13.25;12.75;;;;;;;;5026520;28;45469;-80
2021/07/01 08:22:09;;;;;;;;;14.50;12.00;;;;;;;;5030816;28;45245;-80
2021/07/01 08:27:10;;;;;;;;;12.50;11.00;;;;;;;;5095330;22;45549;-79
2021/07/01 08:29:35;;;;;;;;;12.50;10.75;;;;;;;;5016647;28;45710;-79
2021/07/01 08:32:05;;;;;;;;;16.75;15.75;;;;;;;;5018504;28;67000;-80
2021/07/01 08:34:34;;;;;;;;;15.75;12.25;;;;;;;;5012104;28;46047;-80
2021/07/01 08:36:59;;;;;;;;;17.00;15.00;;;;;;;;5015205;28;46265;-80
2021/07/01 08:39:28;;;;;;;;;19.50;16.00;;;;;;;;5011269;28;45597;-80
2021/07/01 08:41:55;;;;;;;;;14.50;13.50;;;;;;;;5011440;28;45683;-80
2021/07/01 08:44:24;;;;;;;;;22.00;15.75;;;;;;;;5008108;28;45545;-80
2021/07/01 08:47:08;;;;;;;;;18.00;16.00;;;;;;;;5009518;28;45604;-80
2021/07/01 08:49:37;;;;;;;;;19.00;14.50;;;;;;;;5006449;28;45594;-80
2021/07/01 08:52:03;;;;;;;;;15.75;14.25;;;;;;;;5011509;28;45742;-80
2021/07/01 08:54:36;;;;;;;;;16.75;13.00;;;;;;;;5007932;28;47735;-80
2021/07/01 08:57:03;;;;;;;;;20.50;15.50;;;;;;;;5011976;28;47021;-78
2021/07/01 08:59:41;;;;;;;;;16.50;13.25;;;;;;;;5012564;28;45776;-79
2021/07/01 09:02:08;;;;;;;;;14.75;10.75;;;;;;;;5010332;28;45777;-78
2021/07/01 09:04:37;;;;;;;;;19.00;17.25;;;;;;;;5003942;28;46074;-78
2021/07/01 09:07:04;;;;;;;;;21.00;16.25;;;;;;;;5005279;28;45573;-78
2021/07/01 09:09:36;;;;;;;;;20.75;17.75;;;;;;;;5014587;28;45485;-78
2021/07/01 09:12:03;;;;;;;;;20.25;16.75;;;;;;;;5002580;28;45450;-78
2021/07/01 09:14:29;;;;;;;;;19.25;15.50;;;;;;;;5005826;28;47213;-77
2021/07/01 09:16:54;;;;;;;;;23.50;19.50;;;;;;;;5005237;28;45619;-78
2021/07/01 09:19:21;;;;;;;;;20.25;18.00;;;;;;;;5011315;28;45505;-78
2021/07/01 09:21:47;;;;;;;;;19.50;18.00;;;;;;;;5018267;28;45740;-78
2021/07/01 09:24:13;;;;;;;;;22.75;18.25;;;;;;;;5012577;28;45763;-78
2021/07/01 09:26:38;;;;;;;;;19.00;17.50;;;;;;;;5014979;28;46227;-78
2021/07/01 09:29:04;;;;;;;;;17.50;15.75;;;;;;;;5007399;28;45741;-78
2021/07/01 09:31:29;;;;;;;;;19.50;19.00;;;;;;;;5008528;28;45541;-78
2021/07/01 09:33:54;;;;;;;;;16.50;16.50;;;;;;;;5004029;28;46023;-79
2021/07/01 09:36:24;;;;;;;;;22.75;18.00;;;;;;;;5036531;28;45550;-78
2021/07/01 09:38:50;;;;;;;;;16.75;16.75;;;;;;;;5016388;28;45770;-79
2021/07/01 09:41:15;;;;;;;;;26.50;18.50;;;;;;;;5017603;28;45650;-78
2021/07/01 09:43:42;;;;;;;;;17.75;14.50;;;;;;;;5023989;28;45992;-79
2021/07/01 09:46:12;;;;;;;;;16.50;13.75;;;;;;;;5010938;28;45557;-79
2021/07/01 09:48:42;;;;;;;;;16.00;14.25;;;;;;;;5022420;28;45636;-79
2021/07/01 09:51:07;;;;;;;;;16.25;15.00;;;;;;;;5022103;28;45696;-79
2021/07/01 09:53:33;;;;;;;;;18.00;14.75;;;;;;;;5023123;28;46438;-78
2021/07/01 09:56:02;;;;;;;;;16.00;15.75;;;;;;;;5023718;28;45588;-78
2021/07/01 09:58:29;;;;;;;;;19.25;15.50;;;;;;;;5013696;28;45665;-78
2021/07/01 10:00:54;;;;;;;;;24.25;14.50;;;;;;;;5023995;28;45492;-78
2021/07/01 10:03:19;;;;;;;;;16.50;12.75;;;;;;;;5013395;28;45970;-78
2021/07/01 10:05:45;;;;;;;;;16.33;14.00;;;;;;;;5013383;28;45533;-78
2021/07/01 10:08:11;;;;;;;;;13.50;12.50;;;;;;;;5207989;22;45458;-78
2021/07/01 10:10:43;;;;;;;;;17.50;14.00;;;;;;;;4996369;28;45482;-79
2021/07/01 10:13:10;;;;;;;;;15.25;14.25;;;;;;;;5005815;28;46471;-78
2021/07/01 10:15:36;;;;;;;;;14.00;13.25;;;;;;;;4995675;28;45559;-78
2021/07/01 10:18:06;;;;;;;;;16.00;15.25;;;;;;;;5000766;28;45381;-78
2021/07/01 10:20:37;;;;;;;;;14.25;14.00;;;;;;;;4993078;28;46916;-78
2021/07/01 10:23:03;;;;;;;;;17.25;17.00;;;;;;;;4989292;28;46904;-79
2021/07/01 10:25:30;;;;;;;;;15.25;15.25;;;;;;;;5006687;28;50684;-79
2021/07/01 10:27:56;;;;;;;;;20.75;15.00;;;;;;;;5011246;28;45455;-78
2021/07/01 10:30:28;;;;;;;;;18.75;16.75;;;;;;;;4995910;28;45590;-79
2021/07/01 10:32:57;;;;;;;;;22.00;15.00;;;;;;;;4989529;28;45569;-79
2021/07/01 10:35:22;;;;;;;;;18.75;16.50;;;;;;;;4988789;28;45537;-78
2021/07/01 10:38:03;;;;;;;;;18.50;17.00;;;;;;;;5014551;28;45565;-80
2021/07/01 10:40:29;;;;;;;;;22.75;18.25;;;;;;;;4999683;28;45418;-79
2021/07/01 10:42:57;;;;;;;;;20.25;17.75;;;;;;;;5001628;28;45475;-79
2021/07/01 10:45:24;;;;;;;;;20.50;17.75;;;;;;;;4991686;28;45393;-78
2021/07/01 10:47:49;;;;;;;;;23.25;19.25;;;;;;;;4992195;28;45539;-78
2021/07/01 10:50:28;;;;;;;;;20.25;18.75;;;;;;;;5005556;28;45533;-78
2021/07/01 10:52:53;;;;;;;;;23.00;19.25;;;;;;;;4999561;28;45489;-78
2021/07/01 10:55:19;;;;;;;;;26.75;19.25;;;;;;;;4996749;28;45532;-78
2021/07/01 10:57:48;;;;;;;;;20.25;18.50;;;;;;;;4998870;28;45474;-80
2021/07/01 11:00:13;;;;;;;;;21.25;20.25;;;;;;;;4993015;28;46235;-81
2021/07/01 11:02:46;;;;;;;;;24.75;20.75;;;;;;;;5001960;28;47741;-81
2021/07/01 11:05:12;;;;;;;;;16.50;16.50;;;;;;;;4992315;28;45585;-81
2021/07/01 11:07:40;;;;;;;;;21.25;19.50;;;;;;;;4992925;28;45589;-80
2021/07/01 11:10:06;;;;;;;;;23.25;17.25;;;;;;;;4985840;28;45643;-81
2021/07/01 11:12:40;;;;;;;;;21.75;18.75;;;;;;;;4983665;28;46915;-80
2021/07/01 11:15:05;;;;;;;;;26.00;19.75;;;;;;;;4991150;28;45663;-80
2021/07/01 11:17:35;;;;;;;;;24.75;21.25;;;;;;;;5001451;28;45838;-80
2021/07/01 11:20:20;;;;;;;;;18.50;18.50;;;;;;;;4992616;28;45624;-81
2021/07/01 11:22:56;;;;;;;;;21.75;20.00;;;;;;;;4998066;28;46038;-80
2021/07/01 11:25:26;;;;;;;;;26.00;20.25;;;;;;;;4986754;28;45594;-80
2021/07/01 11:27:52;;;;;;;;;21.50;19.75;;;;;;;;5007836;28;45751;-80
2021/07/01 11:30:24;;;;;;;;;18.75;16.00;;;;;;;;4993795;28;45530;-81
2021/07/01 11:33:10;;;;;;;;;22.50;21.00;;;;;;;;4989841;28;46699;-80
2021/07/01 11:35:35;;;;;;;;;23.75;20.50;;;;;;;;5009694;28;45498;-80
2021/07/01 11:38:00;;;;;;;;;23.67;22.00;;;;;;;;5005105;28;45529;-81
2021/07/01 11:40:25;;;;;;;;;23.75;20.50;;;;;;;;4979025;28;45531;-81
2021/07/01 11:42:51;;;;;;;;;23.33;20.00;;;;;;;;4995779;28;45382;-81
2021/07/01 11:45:17;;;;;;;;;27.00;21.00;;;;;;;;4987893;28;45475;-80
2021/07/01 11:47:43;;;;;;;;;28.50;22.25;;;;;;;;4984006;28;45918;-81
2021/07/01 11:50:09;;;;;;;;;21.00;18.75;;;;;;;;4977565;28;45558;-81
2021/07/01 11:52:35;;;;;;;;;23.50;19.25;;;;;;;;5011339;28;47109;-81
2021/07/01 11:55:01;;;;;;;;;20.75;18.75;;;;;;;;4990607;28;46436;-80
2021/07/01 11:57:30;;;;;;;;;24.50;20.50;;;;;;;;4986114;28;45524;-80
2021/07/01 11:59:56;;;;;;;;;24.50;19.50;;;;;;;;4990421;28;46075;-81
2021/07/01 12:02:21;;;;;;;;;26.00;20.50;;;;;;;;4994028;28;46051;-82
2021/07/01 12:04:47;;;;;;;;;22.00;22.00;;;;;;;;4975616;28;45642;-81
2021/07/01 12:07:22;;;;;;;;;23.25;17.00;;;;;;;;4994858;28;45765;-80
2021/07/01 12:09:48;;;;;;;;;22.00;20.50;;;;;;;;5003350;28;45518;-81
2021/07/01 12:12:31;;;;;;;;;27.50;20.00;;;;;;;;4989817;28;47779;-79
2021/07/01 12:15:13;;;;;;;;;23.00;20.25;;;;;;;;4999334;28;45487;-80
2021/07/01 12:18:04;;;;;;;;;24.75;21.00;;;;;;;;4988821;28;45627;-80
2021/07/01 12:20:38;;;;;;;;;20.00;18.00;;;;;;;;4999137;28;45643;-81
2021/07/01 12:23:23;;;;;;;;;20.50;19.25;;;;;;;;4994734;28;47582;-80
2021/07/01 12:25:50;;;;;;;;;20.75;18.75;;;;;;;;4992205;28;45652;-80
2021/07/01 12:28:17;;;;;;;;;19.25;17.25;;;;;;;;5001462;28;45359;-81
2021/07/01 12:30:50;;;;;;;;;18.75;18.50;;;;;;;;5010861;28;45467;-81
2021/07/01 12:33:35;;;;;;;;;20.25;16.75;;;;;;;;5007856;28;45956;-80
2021/07/01 12:36:03;;;;;;;;;26.00;18.00;;;;;;;;4975828;28;45469;-81
2021/07/01 12:38:29;;;;;;;;;21.75;18.75;;;;;;;;4986286;28;47337;-80
2021/07/01 12:40:55;;;;;;;;;21.50;15.50;;;;;;;;4994745;28;46605;-80
2021/07/01 12:43:39;;;;;;;;;23.00;19.00;;;;;;;;4993146;28;48662;-81
2021/07/01 12:46:07;;;;;;;;;19.50;15.50;;;;;;;;4989555;28;45683;-81
2021/07/01 12:48:39;;;;;;;;;19.25;17.50;;;;;;;;5000073;28;45482;-81
2021/07/01 12:51:24;;;;;;;;;25.25;20.25;;;;;;;;4991825;28;45301;-81
2021/07/01 12:53:49;;;;;;;;;24.00;19.50;;;;;;;;5001718;28;46552;-81
2021/07/01 12:56:38;;;;;;;;;22.25;18.50;;;;;;;;4990875;28;45487;-81
2021/07/01 12:59:03;;;;;;;;;20.50;18.50;;;;;;;;4982816;28;45606;-80
2021/07/01 13:01:29;;;;;;;;;23.67;19.00;;;;;;;;5001439;28;45597;-81
2021/07/01 13:03:55;;;;;;;;;17.00;16.00;;;;;;;;4997669;28;47138;-80
2021/07/01 13:06:24;;;;;;;;;21.00;15.75;;;;;;;;4991642;28;45656;-81
2021/07/01 13:08:49;;;;;;;;;15.50;15.25;;;;;;;;4996999;28;45711;-80
2021/07/01 13:11:15;;;;;;;;;21.50;16.50;;;;;;;;5001438;28;45621;-80
2021/07/01 13:13:40;;;;;;;;;16.25;16.25;;;;;;;;4989968;28;45553;-80
2021/07/01 13:16:08;;;;;;;;;16.00;15.00;;;;;;;;4998421;28;45534;-80
2021/07/01 13:18:34;;;;;;;;;22.25;17.00;;;;;;;;4988837;28;45631;-81
2021/07/01 13:21:09;;;;;;;;;18.75;16.00;;;;;;;;4987680;28;50646;-81
2021/07/01 13:23:34;;;;;;;;;15.25;15.00;;;;;;;;4989712;28;45388;-80
2021/07/01 13:25:59;;;;;;;;;21.00;18.00;;;;;;;;4992562;28;45596;-81
2021/07/01 13:28:26;;;;;;;;;19.25;15.75;;;;;;;;4973496;28;45558;-80
2021/07/01 13:30:52;;;;;;;;;23.75;19.00;;;;;;;;5007331;28;45682;-80
2021/07/01 13:33:18;;;;;;;;;18.00;16.75;;;;;;;;4994294;28;45568;-81
2021/07/01 13:35:45;;;;;;;;;20.50;18.25;;;;;;;;5016185;28;45446;-78
2021/07/01 13:38:14;;;;;;;;;18.50;16.00;;;;;;;;4983806;28;45539;-81
2021/07/01 13:40:40;;;;;;;;;22.75;18.50;;;;;;;;4990087;28;45656;-80
2021/07/01 13:43:07;;;;;;;;;17.00;16.25;;;;;;;;5008734;28;46231;-80
2021/07/01 13:45:33;;;;;;;;;21.50;17.75;;;;;;;;5000307;28;45479;-80
2021/07/01 13:47:58;;;;;;;;;21.50;18.75;;;;;;;;4991391;28;45742;-80
2021/07/01 13:50:25;;;;;;;;;21.00;16.75;;;;;;;;4992777;28;45373;-81
2021/07/01 13:52:51;;;;;;;;;18.75;18.50;;;;;;;;4994580;28;47121;-80
2021/07/01 13:55:22;;;;;;;;;21.00;16.25;;;;;;;;4989892;28;46534;-81
2021/07/01 13:57:48;;;;;;;;;20.75;17.00;;;;;;;;4990731;28;45527;-81
2021/07/01 14:00:18;;;;;;;;;20.00;17.50;;;;;;;;4988748;28;45523;-80
2021/07/01 14:02:43;;;;;;;;;19.50;17.25;;;;;;;;4990788;28;46311;-80
2021/07/01 14:05:08;;;;;;;;;15.33;14.67;;;;;;;;4989460;28;46968;-80
2021/07/01 14:07:33;;;;;;;;;17.50;17.00;;;;;;;;4996154;28;45752;-80
2021/07/01 14:10:09;;;;;;;;;21.25;18.50;;;;;;;;4992224;28;45514;-80
2021/07/01 14:12:36;;;;;;;;;18.00;17.00;;;;;;;;4953922;28;47936;-81
2021/07/01 14:15:02;;;;;;;;;16.75;16.75;;;;;;;;4987391;28;45559;-80
2021/07/01 14:17:29;;;;;;;;;17.50;15.00;;;;;;;;4998512;28;45523;-81
2021/07/01 14:19:54;;;;;;;;;14.50;14.50;;;;;;;;4988592;28;45968;-80
2021/07/01 14:22:30;;;;;;;;;20.00;14.75;;;;;;;;4989104;28;46054;-81
2021/07/01 14:24:55;;;;;;;;;16.25;15.00;;;;;;;;4991133;28;59438;-82